createdAt,value
2023-03-12T00:00:10.722Z,-1.30
2023-03-12T00:02:37.874Z,-1.40
2023-03-12T00:05:05.955Z,-0.70
2023-03-12T00:07:33.105Z,-1.30
2023-03-12T00:10:00.238Z,-1.20
2023-03-12T00:12:27.305Z,-0.70
2023-03-12T00:14:54.701Z,-0.40
2023-03-12T00:17:21.759Z,-0.70
2023-03-12T00:19:53.322Z,-1.40
2023-03-12T00:22:23.095Z,-1.20
2023-03-12T00:24:55.980Z,-1.30
2023-03-12T00:27:24.743Z,-1.40
2023-03-12T00:29:52.299Z,-1.50
2023-03-12T00:32:19.641Z,-1.50
2023-03-12T00:34:52.696Z,-0.90
2023-03-12T00:37:20.392Z,-1.20
2023-03-12T00:39:47.545Z,-1.50
2023-03-12T00:42:15.047Z,-1.20
2023-03-12T00:44:43.548Z,-1.50
2023-03-12T00:47:11.824Z,-0.70
2023-03-12T00:49:39.217Z,-1.50
2023-03-12T00:52:06.876Z,-1.40
2023-03-12T00:54:34.047Z,-1.30
2023-03-12T00:57:01.751Z,-1.40
2023-03-12T00:59:29.070Z,-1.30
2023-03-12T01:01:56.188Z,-1.30
2023-03-12T01:04:23.744Z,-1.30
2023-03-12T01:06:50.995Z,-1.30
2023-03-12T01:09:18.245Z,-1.30
2023-03-12T01:11:45.367Z,-0.50
2023-03-12T01:14:12.485Z,-1.30
2023-03-12T01:16:39.679Z,-1.00
2023-03-12T01:19:06.800Z,-1.40
2023-03-12T01:21:33.899Z,-1.50
2023-03-12T01:24:00.996Z,-1.50
2023-03-12T01:26:28.111Z,-1.60
2023-03-12T01:28:55.172Z,-1.50
2023-03-12T01:31:22.324Z,-1.60
2023-03-12T01:33:52.526Z,-1.80
2023-03-12T01:36:22.562Z,-1.10
2023-03-12T01:38:52.873Z,-1.80
2023-03-12T01:41:21.149Z,-1.70
2023-03-12T01:43:48.243Z,-1.80
2023-03-12T01:46:30.605Z,-1.70
2023-03-12T01:49:00.436Z,-1.70
2023-03-12T01:51:54.932Z,-1.70
2023-03-12T01:54:32.290Z,-1.70
2023-03-12T01:57:00.396Z,-1.70
2023-03-12T01:59:36.194Z,-1.50
2023-03-12T02:02:05.612Z,-1.70
2023-03-12T02:04:33.696Z,-1.60
2023-03-12T02:07:09.116Z,-1.80
2023-03-12T02:09:44.341Z,-1.80
2023-03-12T02:12:12.749Z,-1.10
2023-03-12T02:14:40.301Z,-1.80
2023-03-12T02:17:09.079Z,-1.80
2023-03-12T02:19:52.912Z,-1.70
2023-03-12T02:22:22.383Z,-1.60
2023-03-12T02:25:04.091Z,-0.60
2023-03-12T02:27:36.574Z,-1.70
2023-03-12T02:30:06.951Z,-1.50
2023-03-12T02:32:38.918Z,-1.70
2023-03-12T02:35:07.665Z,-1.60
2023-03-12T02:37:34.952Z,-1.60
2023-03-12T02:40:42.622Z,-1.60
2023-03-12T02:43:11.016Z,-1.60
2023-03-12T02:45:39.295Z,-0.60
2023-03-12T02:48:09.286Z,-1.40
2023-03-12T02:50:36.503Z,-1.40
2023-03-12T02:53:03.616Z,-0.10
2023-03-12T02:55:30.809Z,-0.40
2023-03-12T02:57:58.134Z,0.00
2023-03-12T03:00:25.424Z,-1.20
2023-03-12T03:02:52.466Z,-0.20
2023-03-12T03:05:20.593Z,-0.70
2023-03-12T03:07:47.837Z,-1.10
2023-03-12T03:10:17.628Z,-0.20
2023-03-12T03:12:44.783Z,-1.00
2023-03-12T03:15:12.678Z,-0.30
2023-03-12T03:17:39.907Z,-0.20
2023-03-12T03:20:11.297Z,-0.90
2023-03-12T03:22:39.930Z,-0.80
2023-03-12T03:25:09.495Z,0.00
2023-03-12T03:27:49.924Z,-0.70
2023-03-12T03:30:17.567Z,-0.70
2023-03-12T03:32:44.896Z,-0.70
2023-03-12T03:35:12.451Z,-0.40
2023-03-12T03:37:40.033Z,-0.60
2023-03-12T03:40:11.904Z,0.20
2023-03-12T03:42:40.208Z,-0.50
2023-03-12T03:45:08.812Z,0.40
2023-03-12T03:47:36.829Z,-0.50
2023-03-12T03:50:06.492Z,-0.50
2023-03-12T03:52:34.260Z,-0.60
2023-03-12T03:55:01.572Z,-0.60
2023-03-12T03:57:29.680Z,0.10
2023-03-12T04:00:00.402Z,-0.10
2023-03-12T04:02:29.465Z,0.00
2023-03-12T04:05:00.001Z,0.20
2023-03-12T04:07:28.508Z,0.40
2023-03-12T04:09:57.810Z,-0.10
2023-03-12T04:12:26.210Z,0.20
2023-03-12T04:14:53.700Z,0.10
2023-03-12T04:17:20.895Z,0.20
2023-03-12T04:19:48.294Z,-0.20
2023-03-12T04:22:15.466Z,-0.10
2023-03-12T04:24:42.683Z,0.30
2023-03-12T04:27:09.804Z,-0.50
2023-03-12T04:29:39.254Z,0.20
2023-03-12T04:32:07.211Z,0.20
2023-03-12T04:34:34.824Z,-0.50
2023-03-12T04:37:03.146Z,-0.50
2023-03-12T04:39:30.542Z,-0.50
2023-03-12T04:41:57.786Z,-0.50
2023-03-12T04:44:24.841Z,0.40
2023-03-12T04:46:51.989Z,0.30
2023-03-12T04:49:19.446Z,0.20
2023-03-12T04:51:46.722Z,-0.50
2023-03-12T04:54:13.859Z,-0.60
2023-03-12T04:56:41.187Z,0.20
2023-03-12T04:59:09.431Z,-0.60
2023-03-12T05:01:37.731Z,-0.70
2023-03-12T05:04:05.973Z,-0.10
2023-03-12T05:06:34.053Z,-0.20
2023-03-12T05:09:01.182Z,-0.60
2023-03-12T05:11:28.419Z,-0.70
2023-03-12T05:13:56.031Z,0.10
2023-03-12T05:16:23.260Z,-0.70
2023-03-12T05:18:50.695Z,0.10
2023-03-12T05:21:20.580Z,-0.70
2023-03-12T05:23:48.404Z,0.10
2023-03-12T05:26:24.300Z,-0.30
2023-03-12T05:28:52.401Z,-0.70
2023-03-12T05:31:20.077Z,0.00
2023-03-12T05:33:47.844Z,-0.30
2023-03-12T05:36:16.104Z,-0.70
2023-03-12T05:38:43.624Z,-1.00
2023-03-12T05:41:26.260Z,-0.10
2023-03-12T05:43:56.477Z,-0.70
2023-03-12T05:46:26.089Z,-0.10
2023-03-12T05:48:53.715Z,-0.50
2023-03-12T05:51:22.925Z,-0.60
2023-03-12T05:53:50.553Z,-0.60
2023-03-12T05:56:19.135Z,0.20
2023-03-12T05:58:52.484Z,-0.60
2023-03-12T06:01:28.184Z,0.00
2023-03-12T06:03:55.613Z,-0.50
2023-03-12T06:06:23.435Z,-0.40
2023-03-12T06:08:51.859Z,-0.40
2023-03-12T06:11:19.167Z,-0.50
2023-03-12T06:13:46.255Z,-0.40
2023-03-12T06:16:26.527Z,0.10
2023-03-12T06:18:59.803Z,-0.40
2023-03-12T06:21:30.802Z,-0.40
2023-03-12T06:23:59.081Z,-0.40
2023-03-12T06:26:27.415Z,-0.20
2023-03-12T06:28:54.912Z,0.20
2023-03-12T06:31:57.109Z,-0.40
2023-03-12T06:34:24.360Z,-0.30
2023-03-12T06:36:57.496Z,0.60
2023-03-12T06:39:24.602Z,0.60
2023-03-12T06:41:52.097Z,0.70
2023-03-12T06:44:19.785Z,-0.20
2023-03-12T06:46:47.236Z,-0.10
2023-03-12T06:49:15.143Z,-0.10
2023-03-12T06:51:42.615Z,0.70
2023-03-12T06:54:09.905Z,0.80
2023-03-12T06:56:37.134Z,0.80
2023-03-12T06:59:04.727Z,0.50
2023-03-12T07:01:31.969Z,0.00
2023-03-12T07:03:59.283Z,1.00
2023-03-12T07:06:26.676Z,0.70
2023-03-12T07:08:53.684Z,0.50
2023-03-12T07:11:21.076Z,0.60
2023-03-12T07:13:48.829Z,0.10
2023-03-12T07:16:16.040Z,0.10
2023-03-12T07:18:43.176Z,0.90
2023-03-12T07:21:10.156Z,0.80
2023-03-12T07:23:37.686Z,0.80
2023-03-12T07:26:06.273Z,0.20
2023-03-12T07:28:33.822Z,0.10
2023-03-12T07:31:05.253Z,0.00
2023-03-12T07:33:32.912Z,0.30
2023-03-12T07:36:00.492Z,0.00
2023-03-12T07:38:27.795Z,0.70
2023-03-12T07:40:57.745Z,1.00
2023-03-12T07:43:25.814Z,1.00
2023-03-12T07:45:53.307Z,0.50
2023-03-12T07:48:20.679Z,0.00
2023-03-12T07:50:48.634Z,-0.10
2023-03-12T07:53:16.209Z,0.30
2023-03-12T07:55:46.584Z,0.30
2023-03-12T07:58:15.861Z,0.80
2023-03-12T08:00:43.592Z,0.30
2023-03-12T08:03:11.027Z,0.30
2023-03-12T08:05:38.369Z,0.40
2023-03-12T08:08:09.396Z,0.60
2023-03-12T08:10:37.657Z,0.40
2023-03-12T08:13:04.929Z,0.40
2023-03-12T08:15:32.180Z,0.40
2023-03-12T08:17:59.832Z,1.40
2023-03-12T08:20:27.115Z,0.90
2023-03-12T08:22:54.571Z,0.50
2023-03-12T08:25:21.861Z,0.50
2023-03-12T08:27:49.073Z,1.20
2023-03-12T08:30:19.193Z,0.70
2023-03-12T08:32:46.766Z,0.80
2023-03-12T08:35:14.266Z,1.50
2023-03-12T08:37:41.727Z,0.80
2023-03-12T08:40:13.425Z,1.80
2023-03-12T08:42:43.103Z,1.00
2023-03-12T08:45:12.105Z,2.00
2023-03-12T08:47:42.037Z,1.00
2023-03-12T08:50:13.021Z,1.60
2023-03-12T08:52:40.945Z,1.30
2023-03-12T08:55:08.799Z,1.20
2023-03-12T08:57:36.046Z,1.40
2023-03-12T09:00:11.592Z,2.10
2023-03-12T09:02:39.379Z,1.40
2023-03-12T09:05:07.471Z,2.00
2023-03-12T09:07:34.794Z,1.40
2023-03-12T09:10:01.814Z,1.50
2023-03-12T09:12:28.850Z,1.60
2023-03-12T09:15:03.518Z,1.90
2023-03-12T09:17:31.430Z,1.90
2023-03-12T09:19:59.044Z,1.80
2023-03-12T09:22:26.564Z,2.50
2023-03-12T09:24:53.793Z,2.00
2023-03-12T09:27:23.489Z,2.10
2023-03-12T09:30:00.835Z,2.30
2023-03-12T09:32:30.404Z,2.70
2023-03-12T09:34:58.221Z,2.70
2023-03-12T09:37:25.948Z,2.70
2023-03-12T09:39:54.218Z,2.70
2023-03-12T09:43:11.256Z,2.70
2023-03-12T09:45:43.956Z,2.80
2023-03-12T09:48:27.568Z,3.60
2023-03-12T09:50:55.193Z,3.70
2023-03-12T09:53:35.050Z,3.30
2023-03-12T09:56:10.296Z,3.50
2023-03-12T09:58:39.292Z,3.60
2023-03-12T10:01:12.485Z,3.80
2023-03-12T10:04:01.205Z,3.90
2023-03-12T10:07:13.680Z,4.40
2023-03-12T10:10:23.807Z,4.50
2023-03-12T10:13:13.022Z,5.00
2023-03-12T10:16:09.849Z,4.90
2023-03-12T10:18:52.389Z,5.00
2023-03-12T10:21:47.464Z,5.20
2023-03-12T10:24:33.020Z,5.60
2023-03-12T10:27:02.743Z,6.00
2023-03-12T10:29:42.062Z,6.00
2023-03-12T10:32:11.019Z,6.00
2023-03-12T10:35:10.113Z,6.20
2023-03-12T10:37:55.506Z,6.30
2023-03-12T10:40:26.461Z,6.30
2023-03-12T10:42:54.664Z,6.50
2023-03-12T10:45:39.269Z,6.50
2023-03-12T10:48:11.978Z,6.60
2023-03-12T10:50:41.392Z,6.80
2023-03-12T10:53:29.931Z,6.80
2023-03-12T10:56:01.566Z,6.60
2023-03-12T10:58:41.238Z,6.70
2023-03-12T11:01:29.645Z,6.90
2023-03-12T11:04:30.218Z,6.70
2023-03-12T11:07:32.034Z,6.80
2023-03-12T11:10:08.068Z,7.10
2023-03-12T11:12:38.308Z,7.30
2023-03-12T11:15:38.702Z,7.40
2023-03-12T11:18:22.855Z,7.80
2023-03-12T11:20:53.158Z,8.30
2023-03-12T11:23:43.288Z,8.40
2023-03-12T11:26:23.428Z,8.70
2023-03-12T11:29:04.754Z,9.10
2023-03-12T11:31:41.873Z,9.60
2023-03-12T11:34:21.968Z,10.00
2023-03-12T11:37:10.675Z,10.00
2023-03-12T11:40:18.923Z,10.00
2023-03-12T11:43:01.332Z,10.20
2023-03-12T11:46:11.778Z,10.40
2023-03-12T11:48:59.229Z,10.70
2023-03-12T11:51:55.846Z,11.00
2023-03-12T11:54:54.501Z,12.40
2023-03-12T11:57:31.033Z,11.60
2023-03-12T12:00:21.693Z,11.50
2023-03-12T12:02:58.986Z,11.40
2023-03-12T12:05:31.862Z,11.50
2023-03-12T12:08:42.646Z,11.50
2023-03-12T12:12:05.340Z,11.60
2023-03-12T12:15:08.398Z,11.70
2023-03-12T12:18:21.494Z,11.90
2023-03-12T12:21:06.194Z,12.10
2023-03-12T12:24:05.503Z,11.80
2023-03-12T12:27:00.165Z,11.90
2023-03-12T12:30:05.014Z,12.10
2023-03-12T12:33:09.696Z,12.40
2023-03-12T12:35:43.242Z,12.60
2023-03-12T12:38:18.667Z,12.70
2023-03-12T12:40:54.768Z,12.60
2023-03-12T12:43:42.443Z,12.40
2023-03-12T12:46:30.645Z,12.50
2023-03-12T12:49:34.262Z,12.70
2023-03-12T12:52:06.949Z,12.70
2023-03-12T12:55:16.916Z,12.60
2023-03-12T12:57:57.730Z,13.00
2023-03-12T13:00:37.173Z,12.90
2023-03-12T13:03:04.452Z,12.80
2023-03-12T13:05:37.532Z,12.70
2023-03-12T13:08:08.898Z,12.50
2023-03-12T13:10:35.856Z,12.70
2023-03-12T13:13:22.396Z,12.80
2023-03-12T13:15:49.911Z,12.40
2023-03-12T13:18:26.812Z,12.20
2023-03-12T13:20:53.677Z,12.50
2023-03-12T13:23:58.692Z,12.80
2023-03-12T13:27:13.672Z,12.80
2023-03-12T13:29:42.556Z,13.00
2023-03-12T13:32:35.399Z,12.50
2023-03-12T13:35:36.693Z,12.40
2023-03-12T13:38:12.878Z,12.30
2023-03-12T13:41:03.272Z,12.50
2023-03-12T13:43:49.005Z,12.60
2023-03-12T13:46:15.960Z,12.50
2023-03-12T13:48:48.115Z,12.50
2023-03-12T13:51:24.515Z,12.30
2023-03-12T13:53:57.275Z,12.40
2023-03-12T13:56:33.512Z,12.50
2023-03-12T13:59:05.216Z,12.50
2023-03-12T14:01:39.493Z,12.10
2023-03-12T14:04:16.232Z,12.70
2023-03-12T14:07:14.410Z,12.70
2023-03-12T14:09:44.038Z,12.90
2023-03-12T14:13:10.390Z,13.00
2023-03-12T14:16:10.956Z,13.10
2023-03-12T14:18:39.794Z,12.90
2023-03-12T14:21:15.182Z,12.70
2023-03-12T14:23:52.780Z,12.60
2023-03-12T14:26:25.270Z,12.50
2023-03-12T14:29:02.365Z,12.40
2023-03-12T14:31:31.797Z,12.30
2023-03-12T14:34:16.563Z,13.00
2023-03-12T14:37:14.862Z,12.20
2023-03-12T14:39:55.861Z,12.20
2023-03-12T14:42:28.725Z,12.20
2023-03-12T14:45:26.023Z,12.20
2023-03-12T14:47:58.599Z,12.20
2023-03-12T14:50:38.163Z,12.20
2023-03-12T14:53:20.329Z,12.30
2023-03-12T14:55:47.327Z,12.30
2023-03-12T14:58:20.678Z,12.30
2023-03-12T15:00:58.729Z,12.20
2023-03-12T15:03:27.748Z,12.20
2023-03-12T15:05:56.057Z,12.10
2023-03-12T15:08:23.844Z,12.20
2023-03-12T15:10:57.805Z,12.30
2023-03-12T15:13:27.399Z,12.30
2023-03-12T15:15:56.130Z,12.30
2023-03-12T15:18:29.794Z,12.30
2023-03-12T15:20:59.138Z,12.30
2023-03-12T15:23:29.395Z,12.40
2023-03-12T15:26:13.496Z,12.40
2023-03-12T15:28:40.700Z,12.40
2023-03-12T15:31:16.892Z,12.50
2023-03-12T15:33:45.134Z,12.40
2023-03-12T15:36:15.016Z,12.50
2023-03-12T15:39:00.259Z,12.40
2023-03-12T15:41:45.813Z,12.40
2023-03-12T15:44:29.068Z,12.40
2023-03-12T15:47:15.743Z,12.40
2023-03-12T15:49:43.212Z,12.40
2023-03-12T15:52:18.731Z,12.40
2023-03-12T15:55:20.965Z,12.30
2023-03-12T15:57:55.149Z,12.30
2023-03-12T16:00:29.637Z,12.20
2023-03-12T16:03:06.365Z,12.30
2023-03-12T16:05:37.762Z,12.30
2023-03-12T16:08:30.861Z,12.20
2023-03-12T16:10:58.076Z,12.20
2023-03-12T16:13:31.322Z,12.20
2023-03-12T16:16:00.270Z,12.20
2023-03-12T16:18:33.106Z,12.20
2023-03-12T16:21:00.147Z,12.20
2023-03-12T16:23:27.327Z,12.30
2023-03-12T16:25:56.487Z,12.20
2023-03-12T16:28:24.819Z,12.20
2023-03-12T16:30:54.010Z,12.10
2023-03-12T16:33:24.063Z,12.10
2023-03-12T16:35:51.879Z,12.10
2023-03-12T16:38:19.088Z,12.00
2023-03-12T16:40:50.139Z,12.00
2023-03-12T16:43:25.324Z,11.90
2023-03-12T16:45:54.227Z,11.90
2023-03-12T16:48:24.598Z,11.90
2023-03-12T16:50:55.852Z,11.90
2023-03-12T16:53:23.723Z,11.90
2023-03-12T16:56:01.341Z,11.80
2023-03-12T16:58:30.261Z,11.80
2023-03-12T17:03:36.034Z,11.80
2023-03-12T17:06:04.489Z,11.80
2023-03-12T17:08:31.642Z,11.80
2023-03-12T17:11:00.121Z,11.90
2023-03-12T17:13:29.709Z,11.80
2023-03-12T17:15:57.070Z,11.60
2023-03-12T17:18:24.427Z,11.60
2023-03-12T17:20:52.075Z,11.50
2023-03-12T17:23:20.041Z,11.40
2023-03-12T17:25:47.272Z,11.30
2023-03-12T17:28:15.524Z,11.60
2023-03-12T17:30:44.554Z,11.50
2023-03-12T17:33:17.278Z,11.40
2023-03-12T17:35:45.128Z,11.30
2023-03-12T17:38:13.281Z,11.10
2023-03-12T17:40:45.047Z,11.10
2023-03-12T17:43:13.234Z,11.00
2023-03-12T17:45:40.470Z,11.00
2023-03-12T17:48:08.020Z,10.90
2023-03-12T17:50:36.719Z,10.80
2023-03-12T17:53:04.269Z,10.80
2023-03-12T17:55:31.578Z,11.00
2023-03-12T17:57:58.858Z,10.80
2023-03-12T18:00:26.154Z,10.80
2023-03-12T18:02:53.199Z,10.80
2023-03-12T18:05:20.695Z,10.70
2023-03-12T18:07:48.963Z,10.70
2023-03-12T18:10:16.266Z,10.60
2023-03-12T18:12:44.209Z,10.70
2023-03-12T18:15:14.401Z,10.70
2023-03-12T18:17:43.236Z,10.70
2023-03-12T18:20:16.649Z,10.70
2023-03-12T18:22:46.708Z,10.70
2023-03-12T18:25:14.250Z,10.60
2023-03-12T18:27:41.801Z,10.50
2023-03-12T18:30:12.742Z,11.00
2023-03-12T18:32:42.517Z,10.20
2023-03-12T18:35:10.117Z,10.20
2023-03-12T18:37:37.201Z,10.30
2023-03-12T18:40:05.768Z,10.50
2023-03-12T18:42:32.845Z,10.50
2023-03-12T18:44:59.892Z,10.60
2023-03-12T18:47:27.681Z,10.80
2023-03-12T18:49:56.039Z,10.80
2023-03-12T18:52:23.073Z,11.10
2023-03-12T18:54:50.087Z,10.80
2023-03-12T18:57:17.064Z,10.70
2023-03-12T18:59:46.090Z,10.70
2023-03-12T19:02:13.371Z,10.70
2023-03-12T19:04:40.611Z,10.80
2023-03-12T19:07:08.594Z,10.70
2023-03-12T19:09:35.600Z,10.80
2023-03-12T19:12:02.978Z,10.90
2023-03-12T19:14:30.273Z,10.90
2023-03-12T19:16:58.134Z,10.90
2023-03-12T19:19:25.170Z,10.80
2023-03-12T19:21:52.168Z,10.80
2023-03-12T19:24:19.362Z,11.00
2023-03-12T19:26:46.388Z,11.00
2023-03-12T19:29:15.218Z,11.00
2023-03-12T19:31:43.280Z,10.00
2023-03-12T19:34:10.288Z,10.90
2023-03-12T19:36:37.275Z,11.00
2023-03-12T19:39:11.985Z,11.00
2023-03-12T19:41:45.823Z,10.90
2023-03-12T19:44:12.782Z,10.90
2023-03-12T19:46:42.956Z,11.00
2023-03-12T19:49:10.122Z,11.00
2023-03-12T19:51:40.214Z,11.00
2023-03-12T19:54:07.762Z,10.90
2023-03-12T19:56:34.887Z,10.80
2023-03-12T19:59:01.885Z,10.70
2023-03-12T20:01:28.901Z,10.80
2023-03-12T20:03:55.897Z,10.80
2023-03-12T20:06:22.919Z,10.80
2023-03-12T20:08:50.029Z,10.80
2023-03-12T20:11:16.989Z,10.80
2023-03-12T20:13:43.989Z,10.70
2023-03-12T20:16:13.288Z,10.70
2023-03-12T20:18:40.603Z,11.80
2023-03-12T20:21:07.640Z,10.60
2023-03-12T20:23:34.828Z,10.70
2023-03-12T20:26:01.956Z,10.70
2023-03-12T20:28:28.907Z,10.60
2023-03-12T20:30:55.940Z,10.60
2023-03-12T20:33:22.938Z,10.50
2023-03-12T20:35:50.513Z,10.70
2023-03-12T20:38:17.597Z,10.60
2023-03-12T20:40:47.670Z,10.50
2023-03-12T20:43:14.680Z,10.50
2023-03-12T20:45:41.785Z,10.40
2023-03-12T20:48:10.413Z,10.40
2023-03-12T20:50:39.222Z,10.40
2023-03-12T20:53:07.351Z,10.40
2023-03-12T20:55:34.371Z,10.30
2023-03-12T20:58:01.333Z,10.20
2023-03-12T21:00:28.384Z,10.20
2023-03-12T21:02:55.566Z,10.50
2023-03-12T21:05:25.003Z,10.50
2023-03-12T21:07:54.015Z,10.50
2023-03-12T21:10:21.645Z,10.50
2023-03-12T21:12:48.592Z,10.40
2023-03-12T21:15:15.856Z,10.40
2023-03-12T21:17:42.860Z,10.30
2023-03-12T21:20:14.407Z,10.30
2023-03-12T21:22:43.482Z,10.10
2023-03-12T21:25:11.750Z,10.00
2023-03-12T21:27:49.772Z,9.90
2023-03-12T21:30:18.240Z,9.70
2023-03-12T21:32:45.374Z,10.00
2023-03-12T21:35:12.555Z,10.10
2023-03-12T21:37:39.858Z,10.10
2023-03-12T21:40:09.130Z,10.20
2023-03-12T21:42:36.227Z,10.20
2023-03-12T21:45:03.751Z,10.70
2023-03-12T21:47:30.943Z,10.70
2023-03-12T21:49:57.994Z,10.70
2023-03-12T21:52:25.237Z,10.90
2023-03-12T21:54:52.379Z,11.00
2023-03-12T21:57:19.399Z,11.00
2023-03-12T21:59:46.516Z,11.00
2023-03-12T22:02:15.295Z,10.90
2023-03-12T22:04:42.492Z,10.80
2023-03-12T22:07:09.602Z,10.90
2023-03-12T22:09:36.656Z,10.70
2023-03-12T22:12:04.209Z,10.40
2023-03-12T22:14:31.233Z,10.20
2023-03-12T22:16:58.277Z,10.00
2023-03-12T22:19:25.485Z,9.90
2023-03-12T22:21:52.565Z,9.90
2023-03-12T22:24:19.631Z,9.80
2023-03-12T22:26:47.243Z,9.90
2023-03-12T22:29:14.320Z,10.00
2023-03-12T22:31:41.435Z,9.90
2023-03-12T22:34:09.093Z,10.00
2023-03-12T22:36:38.724Z,10.70
2023-03-12T22:39:05.970Z,10.60
2023-03-12T22:41:33.372Z,10.60
2023-03-12T22:44:07.307Z,10.70
2023-03-12T22:46:35.244Z,10.80
2023-03-12T22:49:04.331Z,10.90
2023-03-12T22:51:33.228Z,10.70
2023-03-12T22:54:00.782Z,10.70
2023-03-12T22:56:30.471Z,10.60
2023-03-12T22:58:57.602Z,10.60
2023-03-12T23:01:25.209Z,10.90
2023-03-12T23:03:53.341Z,10.70
2023-03-12T23:06:26.413Z,10.70
2023-03-12T23:08:57.012Z,10.50
2023-03-12T23:11:26.295Z,10.10
2023-03-12T23:13:54.378Z,10.30
2023-03-12T23:16:25.325Z,10.50
2023-03-12T23:18:53.287Z,10.20
2023-03-12T23:21:23.187Z,9.90
2023-03-12T23:23:50.964Z,9.90
2023-03-12T23:26:26.720Z,10.30
2023-03-12T23:28:58.977Z,9.90
2023-03-12T23:31:28.139Z,9.70
2023-03-12T23:33:56.787Z,9.60
2023-03-12T23:36:24.390Z,9.70
2023-03-12T23:38:51.725Z,9.60
2023-03-12T23:41:25.223Z,9.80
2023-03-12T23:43:53.330Z,10.30
2023-03-12T23:46:20.750Z,10.50
2023-03-12T23:48:48.148Z,10.90
2023-03-12T23:51:21.682Z,10.90
2023-03-12T23:53:51.632Z,11.00
2023-03-12T23:56:22.510Z,11.00
2023-03-12T23:58:51.117Z,10.80
